createdAt,value
2023-04-16T00:00:25.488Z,7.08
2023-04-16T00:02:56.052Z,7.13
2023-04-16T00:05:27.551Z,7.14
2023-04-16T00:07:57.879Z,7.16
2023-04-16T00:10:31.143Z,7.10
2023-04-16T00:13:01.718Z,7.15
2023-04-16T00:15:32.187Z,7.09
2023-04-16T00:18:02.685Z,7.13
2023-04-16T00:20:33.056Z,7.13
2023-04-16T00:23:03.567Z,7.09
2023-04-16T00:25:36.524Z,7.09
2023-04-16T00:28:09.024Z,7.06
2023-04-16T00:30:40.407Z,7.09
2023-04-16T00:33:11.002Z,7.08
2023-04-16T00:35:41.364Z,7.05
2023-04-16T00:38:12.375Z,7.05
2023-04-16T00:40:45.353Z,7.06
2023-04-16T00:43:24.930Z,7.08
2023-04-16T00:45:57.036Z,7.05
2023-04-16T00:48:28.325Z,7.02
2023-04-16T00:50:59.217Z,7.03
2023-04-16T00:53:30.141Z,7.01
2023-04-16T00:56:03.655Z,7.04
2023-04-16T00:58:34.977Z,7.03
2023-04-16T01:01:05.796Z,7.07
2023-04-16T01:03:42.972Z,7.04
2023-04-16T01:06:14.350Z,7.07
2023-04-16T01:08:44.855Z,7.05
2023-04-16T01:11:18.478Z,7.05
2023-04-16T01:13:48.880Z,7.01
2023-04-16T01:16:19.504Z,7.05
2023-04-16T01:18:50.552Z,7.07
2023-04-16T01:21:23.564Z,7.08
2023-04-16T01:23:53.933Z,7.08
2023-04-16T01:26:24.533Z,7.06
2023-04-16T01:28:54.861Z,7.01
2023-04-16T01:31:25.235Z,7.05
2023-04-16T01:34:25.515Z,7.03
2023-04-16T01:36:58.517Z,7.04
2023-04-16T01:39:29.028Z,7.01
2023-04-16T01:42:01.589Z,7.04
2023-04-16T01:44:31.898Z,7.02
2023-04-16T01:47:02.415Z,7.00
2023-04-16T01:49:34.079Z,7.05
2023-04-16T01:52:08.666Z,7.00
2023-04-16T01:54:39.106Z,7.03
2023-04-16T01:57:09.652Z,7.07
2023-04-16T01:59:40.199Z,7.05
2023-04-16T02:02:14.990Z,7.08
2023-04-16T02:04:48.095Z,6.99
2023-04-16T02:07:21.101Z,7.03
2023-04-16T02:09:51.931Z,7.01
2023-04-16T02:12:23.050Z,7.01
2023-04-16T02:14:53.556Z,7.05
2023-04-16T02:17:24.402Z,7.02
2023-04-16T02:20:08.199Z,7.06
2023-04-16T02:22:43.666Z,7.00
2023-04-16T02:25:17.358Z,7.01
2023-04-16T02:27:47.896Z,7.04
2023-04-16T02:30:35.043Z,7.02
2023-04-16T02:33:07.797Z,7.00
2023-04-16T02:35:39.488Z,6.97
2023-04-16T02:38:12.857Z,6.98
2023-04-16T02:40:44.016Z,7.01
2023-04-16T02:43:14.926Z,6.93
2023-04-16T02:45:45.301Z,6.99
2023-04-16T02:48:15.726Z,7.04
2023-04-16T02:50:46.142Z,7.04
2023-04-16T02:53:19.101Z,7.03
2023-04-16T02:55:55.503Z,7.02
2023-04-16T02:58:28.085Z,7.05
2023-04-16T03:00:58.793Z,7.04
2023-04-16T03:03:29.302Z,7.04
2023-04-16T03:05:59.944Z,6.96
2023-04-16T03:08:32.925Z,7.01
2023-04-16T03:11:03.234Z,7.01
2023-04-16T03:13:33.643Z,7.02
2023-04-16T03:16:04.300Z,7.04
2023-04-16T03:18:34.648Z,7.00
2023-04-16T03:21:05.195Z,7.01
2023-04-16T03:23:38.645Z,7.01
2023-04-16T03:26:09.295Z,6.96
2023-04-16T03:28:39.717Z,6.98
2023-04-16T03:31:10.151Z,7.00
2023-04-16T03:33:41.479Z,6.98
2023-04-16T03:36:12.984Z,6.99
2023-04-16T03:38:45.943Z,7.01
2023-04-16T03:41:17.580Z,6.99
2023-04-16T03:43:48.273Z,6.96
2023-04-16T03:46:19.547Z,6.96
2023-04-16T03:48:49.924Z,6.93
2023-04-16T03:51:20.914Z,6.93
2023-04-16T03:53:54.121Z,6.92
2023-04-16T03:56:24.570Z,6.91
2023-04-16T03:58:56.318Z,6.91
2023-04-16T04:01:26.731Z,6.91
2023-04-16T04:03:57.357Z,6.94
2023-04-16T04:06:27.915Z,6.96
2023-04-16T04:09:01.119Z,6.95
2023-04-16T04:11:31.788Z,6.95
2023-04-16T04:14:02.268Z,6.88
2023-04-16T04:16:32.851Z,6.88
2023-04-16T04:19:03.444Z,6.91
2023-04-16T04:21:34.426Z,6.93
2023-04-16T04:24:09.406Z,6.94
2023-04-16T04:26:40.002Z,6.93
2023-04-16T04:29:10.619Z,6.92
2023-04-16T04:31:41.194Z,6.93
2023-04-16T04:34:11.728Z,6.92
2023-04-16T04:36:42.237Z,6.86
2023-04-16T04:39:15.123Z,6.89
2023-04-16T04:41:47.399Z,6.89
2023-04-16T04:44:17.823Z,6.91
2023-04-16T04:46:48.237Z,6.95
2023-04-16T04:49:18.573Z,6.90
2023-04-16T04:51:48.995Z,6.94
2023-04-16T04:54:22.089Z,6.93
2023-04-16T04:56:52.678Z,6.92
2023-04-16T04:59:24.092Z,6.94
2023-04-16T05:01:54.878Z,6.90
2023-04-16T05:04:25.265Z,6.94
2023-04-16T05:06:55.752Z,6.89
2023-04-16T05:09:28.724Z,6.89
2023-04-16T05:11:59.126Z,6.89
2023-04-16T05:14:29.486Z,6.95
2023-04-16T05:16:59.961Z,6.95
2023-04-16T05:19:30.425Z,6.94
2023-04-16T05:22:02.954Z,6.93
2023-04-16T05:24:36.100Z,6.89
2023-04-16T05:27:06.641Z,6.87
2023-04-16T05:29:37.017Z,6.90
2023-04-16T05:32:07.645Z,6.86
2023-04-16T05:34:38.230Z,6.84
2023-04-16T05:37:08.576Z,6.87
2023-04-16T05:39:41.529Z,6.87
2023-04-16T05:42:11.990Z,6.86
2023-04-16T05:44:43.808Z,6.80
2023-04-16T05:47:14.388Z,6.80
2023-04-16T05:49:44.870Z,6.85
2023-04-16T05:52:15.545Z,6.82
2023-04-16T05:54:48.493Z,6.81
2023-04-16T05:57:18.977Z,6.85
2023-04-16T05:59:49.537Z,6.82
2023-04-16T06:02:20.103Z,6.83
2023-04-16T06:04:50.694Z,6.81
2023-04-16T06:07:21.120Z,6.84
2023-04-16T06:09:54.069Z,6.81
2023-04-16T06:12:24.669Z,6.88
2023-04-16T06:14:55.366Z,6.83
2023-04-16T06:17:26.091Z,6.86
2023-04-16T06:19:56.686Z,6.89
2023-04-16T06:22:27.890Z,6.90
2023-04-16T06:25:01.076Z,6.89
2023-04-16T06:27:31.477Z,6.91
2023-04-16T06:30:01.864Z,6.92
2023-04-16T06:32:32.350Z,6.94
2023-04-16T06:35:02.855Z,6.89
2023-04-16T06:37:33.344Z,6.93
2023-04-16T06:40:06.972Z,6.90
2023-04-16T06:42:37.412Z,6.93
2023-04-16T06:45:09.795Z,6.92
2023-04-16T06:47:40.284Z,6.92
2023-04-16T06:50:12.069Z,6.96
2023-04-16T06:52:42.433Z,6.96
2023-04-16T06:55:15.828Z,6.93
2023-04-16T06:57:46.333Z,6.98
2023-04-16T07:00:17.460Z,6.99
2023-04-16T07:02:48.081Z,7.04
2023-04-16T07:05:18.614Z,7.04
2023-04-16T07:07:48.945Z,6.99
2023-04-16T07:10:21.853Z,7.08
2023-04-16T07:12:52.239Z,7.09
2023-04-16T07:15:23.016Z,7.08
2023-04-16T07:17:54.214Z,7.13
2023-04-16T07:20:24.672Z,7.09
2023-04-16T07:22:55.201Z,7.10
2023-04-16T07:25:28.458Z,7.07
2023-04-16T07:27:58.981Z,7.07
2023-04-16T07:30:34.249Z,7.10
2023-04-16T07:33:05.996Z,7.15
2023-04-16T07:35:36.643Z,7.16
2023-04-16T07:38:07.003Z,7.17
2023-04-16T07:40:40.284Z,7.21
2023-04-16T07:43:10.771Z,7.19
2023-04-16T07:45:41.551Z,7.22
2023-04-16T07:48:12.060Z,7.15
2023-04-16T07:50:43.869Z,7.17
2023-04-16T07:53:14.826Z,7.19
2023-04-16T07:55:47.786Z,7.23
2023-04-16T07:58:18.284Z,7.24
2023-04-16T08:00:50.810Z,7.25
2023-04-16T08:03:21.710Z,7.25
2023-04-16T08:05:52.432Z,7.27
2023-04-16T08:08:22.892Z,7.28
2023-04-16T08:10:56.495Z,7.28
2023-04-16T08:13:27.395Z,7.32
2023-04-16T08:15:57.759Z,7.31
2023-04-16T08:18:28.402Z,7.26
2023-04-16T08:20:59.048Z,7.28
2023-04-16T08:23:29.874Z,7.26
2023-04-16T08:26:03.978Z,7.24
2023-04-16T08:28:35.306Z,7.27
2023-04-16T08:31:06.013Z,7.25
2023-04-16T08:33:36.416Z,7.30
2023-04-16T08:36:07.437Z,7.32
2023-04-16T08:38:37.854Z,7.27
2023-04-16T08:41:15.582Z,7.28
2023-04-16T08:43:48.480Z,7.32
2023-04-16T08:46:20.700Z,7.33
2023-04-16T08:48:56.934Z,7.30
2023-04-16T08:51:28.275Z,7.29
2023-04-16T08:54:08.350Z,7.37
2023-04-16T08:56:43.297Z,7.40
2023-04-16T08:59:14.166Z,7.40
2023-04-16T09:01:45.657Z,7.44
2023-04-16T09:04:18.999Z,7.47
2023-04-16T09:06:50.781Z,7.44
2023-04-16T09:09:23.432Z,7.45
2023-04-16T09:11:58.942Z,7.53
2023-04-16T09:14:29.303Z,7.57
2023-04-16T09:17:01.348Z,7.57
2023-04-16T09:19:31.811Z,7.58
2023-04-16T09:22:02.452Z,7.59
2023-04-16T09:24:33.464Z,7.63
2023-04-16T09:27:06.700Z,7.63
2023-04-16T09:29:38.794Z,7.62
2023-04-16T09:32:12.355Z,7.63
2023-04-16T09:35:00.798Z,7.65
2023-04-16T09:37:32.776Z,7.64
2023-04-16T09:40:05.048Z,7.64
2023-04-16T09:42:40.306Z,7.60
2023-04-16T09:45:11.840Z,7.62
2023-04-16T09:47:44.509Z,7.60
2023-04-16T09:50:20.333Z,7.59
2023-04-16T09:52:53.270Z,7.58
2023-04-16T09:55:29.266Z,7.57
2023-04-16T09:58:05.337Z,7.57
2023-04-16T10:00:36.027Z,7.59
2023-04-16T10:03:14.301Z,7.60
2023-04-16T10:05:45.061Z,7.60
2023-04-16T10:08:16.622Z,7.61
2023-04-16T10:10:47.727Z,7.58
2023-04-16T10:13:21.015Z,7.58
2023-04-16T10:15:52.364Z,7.51
2023-04-16T10:18:23.478Z,7.55
2023-04-16T10:20:54.781Z,7.54
2023-04-16T10:23:26.054Z,7.53
2023-04-16T10:25:58.183Z,7.62
2023-04-16T10:28:31.962Z,7.63
2023-04-16T10:31:04.982Z,7.65
2023-04-16T10:33:38.341Z,7.64
2023-04-16T10:36:13.700Z,7.68
2023-04-16T10:38:49.252Z,7.69
2023-04-16T10:41:19.908Z,7.71
2023-04-16T10:43:54.092Z,7.71
2023-04-16T10:46:27.082Z,7.72
2023-04-16T10:48:59.875Z,7.73
2023-04-16T10:51:33.327Z,7.73
2023-04-16T10:54:22.771Z,7.73
2023-04-16T10:56:54.104Z,7.72
2023-04-16T10:59:28.597Z,7.75
2023-04-16T11:02:02.576Z,7.75
2023-04-16T11:04:37.733Z,7.81
2023-04-16T11:07:20.344Z,7.80
2023-04-16T11:09:56.855Z,7.79
2023-04-16T11:12:30.246Z,7.76
2023-04-16T11:15:06.710Z,7.73
2023-04-16T11:17:41.955Z,7.74
2023-04-16T11:20:20.436Z,7.76
2023-04-16T11:22:51.832Z,7.79
2023-04-16T11:25:26.419Z,7.79
2023-04-16T11:27:58.084Z,7.76
2023-04-16T11:30:36.844Z,7.73
2023-04-16T11:33:14.171Z,7.74
2023-04-16T11:35:46.207Z,7.71
2023-04-16T11:38:16.822Z,7.71
2023-04-16T11:40:47.951Z,7.75
2023-04-16T11:43:20.148Z,7.73
2023-04-16T11:46:10.324Z,7.70
2023-04-16T11:48:53.304Z,7.73
2023-04-16T11:51:24.122Z,7.75
2023-04-16T11:53:56.989Z,7.76
2023-04-16T11:56:31.239Z,7.78
2023-04-16T11:59:15.685Z,7.78
2023-04-16T12:01:51.655Z,7.73
2023-04-16T12:04:25.194Z,7.71
2023-04-16T12:07:12.629Z,7.75
2023-04-16T12:09:45.524Z,7.74
2023-04-16T12:12:32.589Z,7.73
2023-04-16T12:15:05.980Z,7.77
2023-04-16T12:17:41.132Z,7.74
2023-04-16T12:20:14.347Z,7.83
2023-04-16T12:22:49.945Z,7.81
2023-04-16T12:25:21.666Z,7.80
2023-04-16T12:27:54.384Z,7.76
2023-04-16T12:30:27.857Z,7.85
2023-04-16T12:33:21.512Z,7.85
2023-04-16T12:35:52.784Z,7.86
2023-04-16T12:38:24.701Z,7.87
2023-04-16T12:40:57.397Z,7.89
2023-04-16T12:43:28.725Z,7.93
2023-04-16T12:45:59.271Z,7.92
2023-04-16T12:48:32.887Z,7.91
2023-04-16T12:51:03.319Z,7.91
2023-04-16T12:53:33.708Z,7.94
2023-04-16T12:56:04.386Z,7.89
2023-04-16T12:58:34.852Z,7.95
2023-04-16T13:01:05.375Z,7.95
2023-04-16T13:03:38.674Z,7.96
2023-04-16T13:06:09.240Z,7.97
2023-04-16T13:08:40.408Z,8.00
2023-04-16T13:11:11.731Z,8.00
2023-04-16T13:13:42.222Z,8.01
2023-04-16T13:16:12.934Z,8.03
2023-04-16T13:18:46.023Z,7.99
2023-04-16T13:21:16.753Z,8.02
2023-04-16T13:23:47.121Z,8.04
2023-04-16T13:26:17.697Z,8.05
2023-04-16T13:28:48.181Z,7.97
2023-04-16T13:31:22.258Z,8.00
2023-04-16T13:33:55.747Z,8.03
2023-04-16T13:36:27.641Z,8.02
2023-04-16T13:38:58.206Z,8.01
2023-04-16T13:41:28.953Z,8.06
2023-04-16T13:43:59.338Z,8.01
2023-04-16T13:46:29.934Z,8.05
2023-04-16T13:49:02.998Z,8.05
2023-04-16T13:51:33.391Z,8.01
2023-04-16T13:54:03.904Z,8.07
2023-04-16T13:56:34.277Z,8.01
2023-04-16T13:59:04.904Z,8.05
2023-04-16T14:01:35.272Z,8.11
2023-04-16T14:04:09.812Z,8.10
2023-04-16T14:06:40.410Z,8.10
2023-04-16T14:09:11.190Z,8.09
2023-04-16T14:11:42.010Z,8.11
2023-04-16T14:14:12.557Z,8.09
2023-04-16T14:16:43.290Z,8.18
2023-04-16T14:19:16.621Z,8.18
2023-04-16T14:21:47.079Z,8.23
2023-04-16T14:24:17.483Z,8.20
2023-04-16T14:26:48.120Z,8.19
2023-04-16T14:29:18.630Z,8.17
2023-04-16T14:31:50.483Z,8.17
2023-04-16T14:34:23.744Z,8.22
2023-04-16T14:36:54.200Z,8.21
2023-04-16T14:39:25.109Z,8.28
2023-04-16T14:41:55.476Z,8.25
2023-04-16T14:44:25.937Z,8.24
2023-04-16T14:46:56.632Z,8.26
2023-04-16T14:49:29.796Z,8.23
2023-04-16T14:52:02.249Z,8.22
2023-04-16T14:54:32.609Z,8.23
2023-04-16T14:57:03.741Z,8.22
2023-04-16T14:59:34.412Z,8.23
2023-04-16T15:02:05.142Z,8.20
2023-04-16T15:04:38.439Z,8.20
2023-04-16T15:07:08.926Z,8.18
2023-04-16T15:09:39.276Z,8.21
2023-04-16T15:12:09.881Z,8.19
2023-04-16T15:14:40.522Z,8.18
2023-04-16T15:17:11.055Z,8.22
2023-04-16T15:19:44.231Z,8.25
2023-04-16T15:22:15.073Z,8.17
2023-04-16T15:24:45.566Z,8.25
2023-04-16T15:27:17.784Z,8.21
2023-04-16T15:29:51.136Z,8.22
2023-04-16T15:32:21.769Z,8.20
2023-04-16T15:34:55.135Z,8.20
2023-04-16T15:37:25.610Z,8.18
2023-04-16T15:39:56.922Z,8.15
2023-04-16T15:42:27.610Z,8.13
2023-04-16T15:44:58.010Z,8.14
2023-04-16T15:47:28.599Z,8.13
2023-04-16T15:50:04.753Z,8.09
2023-04-16T15:52:35.149Z,8.07
2023-04-16T15:55:05.791Z,8.15
2023-04-16T15:57:36.291Z,8.09
2023-04-16T16:00:13.555Z,8.15
2023-04-16T16:02:44.591Z,8.15
2023-04-16T16:05:18.919Z,8.18
2023-04-16T16:07:49.436Z,8.14
2023-04-16T16:10:20.485Z,8.12
2023-04-16T16:12:50.946Z,8.14
2023-04-16T16:15:21.835Z,8.17
2023-04-16T16:17:53.744Z,8.10
2023-04-16T16:20:27.630Z,8.15
2023-04-16T16:22:58.216Z,8.14
2023-04-16T16:25:29.240Z,8.16
2023-04-16T16:27:59.732Z,8.20
2023-04-16T16:30:30.270Z,8.14
2023-04-16T16:33:01.006Z,8.19
2023-04-16T16:35:34.841Z,8.19
2023-04-16T16:38:05.450Z,8.20
2023-04-16T16:40:36.265Z,8.16
2023-04-16T16:43:06.723Z,8.22
2023-04-16T16:45:37.164Z,8.22
2023-04-16T16:48:08.090Z,8.27
2023-04-16T16:50:41.293Z,8.25
2023-04-16T16:53:11.696Z,8.26
2023-04-16T16:55:42.155Z,8.29
2023-04-16T16:58:12.679Z,8.23
2023-04-16T17:00:43.078Z,8.30
2023-04-16T17:03:13.977Z,8.24
2023-04-16T17:05:47.179Z,8.29
2023-04-16T17:08:17.638Z,8.25
2023-04-16T17:10:48.073Z,8.26
2023-04-16T17:13:19.916Z,8.31
2023-04-16T17:15:50.771Z,8.29
2023-04-16T17:18:21.148Z,8.24
2023-04-16T17:20:54.245Z,8.27
2023-04-16T17:23:24.696Z,8.26
2023-04-16T17:25:55.233Z,8.29
2023-04-16T17:28:26.197Z,8.25
2023-04-16T17:30:57.528Z,8.26
2023-04-16T17:33:28.066Z,8.21
2023-04-16T17:36:01.534Z,8.24
2023-04-16T17:38:32.026Z,8.21
2023-04-16T17:41:02.768Z,8.23
2023-04-16T17:43:33.137Z,8.27
2023-04-16T17:46:03.853Z,8.24
2023-04-16T17:48:34.313Z,8.25
2023-04-16T17:51:13.170Z,8.27
2023-04-16T17:53:44.823Z,8.28
2023-04-16T17:56:16.193Z,8.25
2023-04-16T17:58:46.783Z,8.26
2023-04-16T18:01:17.173Z,8.22
2023-04-16T18:03:47.938Z,8.19
2023-04-16T18:06:21.220Z,8.17
2023-04-16T18:08:51.646Z,8.21
2023-04-16T18:11:22.180Z,8.16
2023-04-16T18:13:53.872Z,8.21
2023-04-16T18:16:24.897Z,8.25
2023-04-16T18:18:55.330Z,8.21
2023-04-16T18:21:29.938Z,8.22
2023-04-16T18:24:03.706Z,8.18
2023-04-16T18:26:36.228Z,8.17
2023-04-16T18:29:07.292Z,8.29
2023-04-16T18:31:37.954Z,8.28
2023-04-16T18:34:08.550Z,8.26
2023-04-16T18:36:41.608Z,8.30
2023-04-16T18:39:12.165Z,8.23
2023-04-16T18:41:43.762Z,8.27
2023-04-16T18:44:15.055Z,8.24
2023-04-16T18:46:46.352Z,8.27
2023-04-16T18:49:16.913Z,8.30
2023-04-16T18:51:50.041Z,8.27
2023-04-16T18:54:20.587Z,8.24
2023-04-16T18:56:51.095Z,8.29
2023-04-16T18:59:21.616Z,8.31
2023-04-16T19:01:52.171Z,8.28
2023-04-16T19:04:22.753Z,8.23
2023-04-16T19:06:56.037Z,8.27
2023-04-16T19:09:29.277Z,8.27
2023-04-16T19:11:59.650Z,8.23
2023-04-16T19:14:30.195Z,8.27
2023-04-16T19:17:00.712Z,8.30
2023-04-16T19:19:31.349Z,8.32
2023-04-16T19:22:04.437Z,8.32
2023-04-16T19:24:34.954Z,8.32
2023-04-16T19:27:05.337Z,8.32
2023-04-16T19:29:37.119Z,8.30
2023-04-16T19:32:08.212Z,8.29
2023-04-16T19:34:38.816Z,8.29
2023-04-16T19:37:11.975Z,8.27
2023-04-16T19:39:42.508Z,8.21
2023-04-16T19:42:13.081Z,8.24
2023-04-16T19:44:43.548Z,8.29
2023-04-16T19:47:14.084Z,8.23
2023-04-16T19:49:44.926Z,8.25
2023-04-16T19:52:18.232Z,8.26
2023-04-16T19:54:48.807Z,8.21
2023-04-16T19:57:19.447Z,8.22
2023-04-16T19:59:49.836Z,8.21
2023-04-16T20:02:20.265Z,8.23
2023-04-16T20:04:50.920Z,8.22
2023-04-16T20:07:24.003Z,8.19
2023-04-16T20:09:54.934Z,8.23
2023-04-16T20:12:25.786Z,8.19
2023-04-16T20:14:56.469Z,8.22
2023-04-16T20:17:27.057Z,8.21
2023-04-16T20:20:01.002Z,8.18
2023-04-16T20:22:34.020Z,8.23
2023-04-16T20:25:05.660Z,8.22
2023-04-16T20:27:38.047Z,8.18
2023-04-16T20:30:10.350Z,8.19
2023-04-16T20:32:41.377Z,8.25
2023-04-16T20:35:15.582Z,8.23
2023-04-16T20:37:48.651Z,8.17
2023-04-16T20:40:19.428Z,8.23
2023-04-16T20:42:52.302Z,8.20
2023-04-16T20:45:24.539Z,8.22
2023-04-16T20:47:55.161Z,8.21
2023-04-16T20:50:25.663Z,8.18
2023-04-16T20:52:58.832Z,8.18
2023-04-16T20:55:32.553Z,8.18
2023-04-16T20:58:02.947Z,8.21
2023-04-16T21:00:33.536Z,8.15
2023-04-16T21:03:04.023Z,8.20
2023-04-16T21:05:34.815Z,8.20
2023-04-16T21:08:08.596Z,8.19
2023-04-16T21:10:39.180Z,8.17
2023-04-16T21:13:10.812Z,8.14
2023-04-16T21:15:42.032Z,8.21
2023-04-16T21:18:13.889Z,8.13
2023-04-16T21:20:44.343Z,8.15
2023-04-16T21:23:17.442Z,8.19
2023-04-16T21:25:47.905Z,8.20
2023-04-16T21:28:18.378Z,8.19
2023-04-16T21:30:48.722Z,8.18
2023-04-16T21:33:19.029Z,8.17
2023-04-16T21:35:55.072Z,8.09
2023-04-16T21:38:28.120Z,8.16
2023-04-16T21:40:58.657Z,8.16
2023-04-16T21:43:30.749Z,8.10
2023-04-16T21:46:01.399Z,8.15
2023-04-16T21:48:31.791Z,8.17
2023-04-16T21:51:06.695Z,8.11
2023-04-16T21:53:40.029Z,8.16
2023-04-16T21:56:11.054Z,8.11
2023-04-16T21:58:41.429Z,8.13
2023-04-16T22:01:11.790Z,8.12
2023-04-16T22:03:42.654Z,8.18
2023-04-16T22:06:14.275Z,8.11
2023-04-16T22:08:47.269Z,8.12
2023-04-16T22:11:17.762Z,8.20
2023-04-16T22:13:49.656Z,8.16
2023-04-16T22:16:19.981Z,8.18
2023-04-16T22:18:50.393Z,8.15
2023-04-16T22:21:20.748Z,8.15
2023-04-16T22:23:53.770Z,8.20
2023-04-16T22:26:24.139Z,8.18
2023-04-16T22:28:54.709Z,8.14
2023-04-16T22:31:25.118Z,8.15
2023-04-16T22:33:55.727Z,8.15
2023-04-16T22:36:26.612Z,8.12
2023-04-16T22:38:59.549Z,8.09
2023-04-16T22:41:30.080Z,8.09
2023-04-16T22:44:00.539Z,8.04
2023-04-16T22:46:31.158Z,8.05
2023-04-16T22:49:01.753Z,8.09
2023-04-16T22:51:32.161Z,8.04
2023-04-16T22:54:05.378Z,8.03
2023-04-16T22:56:35.850Z,8.09
2023-04-16T22:59:06.437Z,8.04
2023-04-16T23:01:37.568Z,8.01
2023-04-16T23:04:08.283Z,8.02
2023-04-16T23:06:39.245Z,8.01
2023-04-16T23:09:12.595Z,8.00
2023-04-16T23:11:43.269Z,8.01
2023-04-16T23:14:16.210Z,8.03
2023-04-16T23:16:47.424Z,8.02
2023-04-16T23:19:17.902Z,8.00
2023-04-16T23:21:50.633Z,8.03
2023-04-16T23:24:23.909Z,8.03
2023-04-16T23:26:55.039Z,8.04
2023-04-16T23:29:25.479Z,7.98
2023-04-16T23:31:55.972Z,7.99
2023-04-16T23:34:26.519Z,8.03
2023-04-16T23:36:56.985Z,7.96
2023-04-16T23:39:30.093Z,7.98
2023-04-16T23:42:00.579Z,7.99
2023-04-16T23:44:30.944Z,7.96
2023-04-16T23:47:01.535Z,7.97
2023-04-16T23:49:32.117Z,7.96
2023-04-16T23:52:02.474Z,7.96
2023-04-16T23:54:35.633Z,7.98
2023-04-16T23:57:05.943Z,7.96
2023-04-16T23:59:36.417Z,7.93
